createdAt,value
2019-04-04T00:01:08.505Z,6.56
2019-04-04T00:06:10.582Z,6.32
2019-04-04T00:11:12.592Z,6.21
2019-04-04T00:16:16.658Z,6.46
2019-04-04T00:21:18.947Z,6.17
2019-04-04T00:26:23.899Z,6.20
2019-04-04T00:31:28.630Z,5.91
2019-04-04T00:36:34.693Z,6.02
2019-04-04T00:41:36.408Z,5.99
2019-04-04T00:46:38.737Z,5.88
2019-04-04T00:51:40.798Z,5.76
2019-04-04T00:56:42.808Z,5.96
2019-04-04T01:01:47.885Z,5.96
2019-04-04T01:06:51.275Z,5.96
2019-04-04T01:11:53.276Z,5.79
2019-04-04T01:16:55.547Z,5.78
2019-04-04T01:21:57.542Z,5.70
2019-04-04T01:27:01.562Z,5.55
2019-04-04T01:32:06.457Z,5.54
2019-04-04T01:37:08.625Z,5.54
2019-04-04T01:42:10.832Z,5.48
2019-04-04T01:47:12.938Z,5.68
2019-04-04T01:52:15.283Z,5.62
2019-04-04T01:57:17.583Z,5.40
2019-04-04T02:02:19.669Z,5.46
2019-04-04T02:07:21.772Z,5.49
2019-04-04T02:12:25.587Z,5.67
2019-04-04T02:17:29.018Z,5.72
2019-04-04T02:22:34.011Z,5.70
2019-04-04T02:27:37.909Z,5.71
2019-04-04T02:32:43.864Z,5.74
2019-04-04T02:37:48.186Z,5.78
2019-04-04T02:42:53.955Z,5.64
2019-04-04T02:47:54.099Z,5.54
2019-04-04T02:52:56.226Z,5.62
2019-04-04T02:57:58.589Z,5.49
2019-04-04T03:03:00.659Z,5.42
2019-04-04T03:08:04.175Z,5.49
2019-04-04T03:13:06.461Z,5.48
2019-04-04T03:18:08.458Z,5.72
2019-04-04T03:23:10.533Z,5.70
2019-04-04T03:28:12.562Z,5.79
2019-04-04T03:33:16.828Z,5.85
2019-04-04T03:38:18.836Z,5.82
2019-04-04T03:43:20.935Z,5.83
2019-04-04T03:48:22.926Z,5.83
2019-04-04T03:53:24.952Z,5.98
2019-04-04T03:58:28.033Z,5.78
2019-04-04T04:03:32.910Z,5.84
2019-04-04T04:08:35.144Z,5.86
2019-04-04T04:13:37.407Z,5.93
2019-04-04T04:18:39.452Z,5.92
2019-04-04T04:23:41.489Z,5.92
2019-04-04T04:28:43.642Z,5.93
2019-04-04T04:33:46.272Z,6.02
2019-04-04T04:38:48.309Z,5.85
2019-04-04T04:43:50.533Z,5.84
2019-04-04T04:48:52.533Z,5.96
2019-04-04T04:53:54.520Z,5.89
2019-04-04T04:58:59.501Z,5.80
2019-04-04T05:04:02.680Z,5.90
2019-04-04T05:09:05.462Z,5.87
2019-04-04T05:14:07.649Z,5.74
2019-04-04T05:19:09.658Z,5.76
2019-04-04T05:24:11.722Z,5.90
2019-04-04T05:29:14.160Z,5.99
2019-04-04T05:34:16.568Z,5.94
2019-04-04T05:39:18.773Z,5.97
2019-04-04T05:44:23.676Z,6.11
2019-04-04T05:49:26.294Z,6.00
2019-04-04T05:54:28.334Z,6.33
2019-04-04T05:59:30.359Z,6.37
2019-04-04T06:04:35.246Z,6.35
2019-04-04T06:09:37.565Z,6.50
2019-04-04T06:14:46.171Z,6.63
2019-04-04T06:19:48.240Z,6.74
2019-04-04T06:24:52.148Z,6.81
2019-04-04T06:29:54.457Z,6.82
2019-04-04T06:34:56.854Z,6.88
2019-04-04T06:45:16.159Z,7.33
2019-04-04T06:50:18.580Z,7.16
2019-04-04T06:55:20.576Z,6.76
2019-04-04T07:00:25.320Z,7.53
2019-04-04T07:05:28.537Z,7.54
2019-04-04T07:10:34.845Z,7.53
2019-04-04T07:15:46.209Z,7.34
2019-04-04T07:20:40.950Z,7.84
2019-04-04T07:25:43.074Z,7.84
2019-04-04T07:30:45.067Z,7.85
2019-04-04T07:35:49.616Z,7.89
2019-04-04T07:40:51.706Z,8.19
2019-04-04T07:45:55.269Z,8.10
2019-04-04T07:50:58.561Z,8.39
2019-04-04T07:56:02.709Z,8.89
2019-04-04T08:01:04.813Z,9.27
2019-04-04T08:06:12.199Z,8.94
2019-04-04T08:11:14.208Z,9.16
2019-04-04T08:16:16.442Z,10.17
2019-04-04T08:21:18.489Z,10.57
2019-04-04T08:26:20.483Z,10.10
2019-04-04T08:31:22.471Z,9.41
2019-04-04T08:36:24.664Z,9.62
2019-04-04T08:41:26.774Z,9.76
2019-04-04T08:46:29.217Z,10.10
2019-04-04T08:51:31.274Z,9.73
2019-04-04T08:56:33.677Z,10.01
2019-04-04T09:01:35.999Z,10.16
2019-04-04T09:06:38.272Z,10.21
2019-04-04T09:11:40.352Z,9.98
2019-04-04T09:16:44.747Z,9.51
2019-04-04T09:21:47.008Z,9.44
2019-04-04T09:26:49.593Z,10.49
2019-04-04T09:31:54.167Z,11.27
2019-04-04T09:36:57.566Z,11.16
2019-04-04T09:41:59.599Z,10.83
2019-04-04T09:47:05.600Z,10.41
2019-04-04T09:52:05.769Z,10.46
2019-04-04T09:57:07.756Z,11.41
2019-04-04T10:02:12.813Z,10.90
2019-04-04T10:07:15.251Z,10.94
2019-04-04T10:12:17.690Z,11.63
2019-04-04T10:17:19.924Z,11.97
2019-04-04T10:22:21.973Z,11.60
2019-04-04T10:27:26.091Z,12.39
2019-04-04T10:32:28.122Z,12.27
2019-04-04T10:37:30.346Z,11.93
2019-04-04T10:42:33.910Z,11.34
2019-04-04T10:47:36.293Z,11.53
2019-04-04T10:52:38.297Z,12.64
2019-04-04T10:57:42.783Z,12.36
2019-04-04T11:02:44.807Z,11.81
2019-04-04T11:07:47.287Z,11.81
2019-04-04T11:12:49.349Z,12.09
2019-04-04T11:17:53.821Z,11.35
2019-04-04T11:22:55.824Z,12.29
2019-04-04T11:27:57.843Z,12.49
2019-04-04T11:32:59.847Z,12.48
2019-04-04T11:38:01.861Z,11.80
2019-04-04T11:43:03.889Z,11.98
2019-04-04T11:48:05.884Z,12.40
2019-04-04T11:53:08.045Z,13.63
2019-04-04T11:58:10.139Z,13.84
2019-04-04T12:03:12.277Z,13.84
2019-04-04T12:08:16.042Z,13.37
2019-04-04T12:13:18.164Z,12.36
2019-04-04T12:18:26.381Z,13.04
2019-04-04T12:23:28.467Z,13.85
2019-04-04T12:28:30.459Z,12.21
2019-04-04T12:33:32.508Z,13.33
2019-04-04T12:38:34.704Z,12.95
2019-04-04T12:43:38.947Z,14.10
2019-04-04T12:48:41.036Z,14.22
2019-04-04T12:53:43.154Z,14.22
2019-04-04T12:58:45.672Z,14.28
2019-04-04T13:03:47.780Z,13.70
2019-04-04T13:08:51.594Z,14.61
2019-04-04T13:13:54.018Z,14.53
2019-04-04T13:18:56.085Z,13.94
2019-04-04T13:23:58.114Z,13.56
2019-04-04T13:29:00.435Z,14.11
2019-04-04T13:34:02.726Z,14.11
2019-04-04T13:39:08.730Z,14.14
2019-04-04T13:44:10.774Z,13.77
2019-04-04T13:49:12.830Z,12.99
2019-04-04T13:54:15.108Z,14.22
2019-04-04T13:59:17.125Z,13.34
2019-04-04T14:04:20.430Z,15.10
2019-04-04T14:09:22.949Z,15.14
2019-04-04T14:14:26.513Z,15.02
2019-04-04T14:19:31.441Z,14.34
2019-04-04T14:24:33.120Z,14.88
2019-04-04T14:29:35.154Z,13.85
2019-04-04T14:34:37.155Z,14.00
2019-04-04T14:39:39.177Z,13.83
2019-04-04T14:44:41.181Z,13.20
2019-04-04T14:49:45.791Z,13.70
2019-04-04T14:54:47.321Z,13.58
2019-04-04T14:59:49.318Z,14.40
2019-04-04T15:04:51.634Z,14.26
2019-04-04T15:09:53.632Z,13.35
2019-04-04T15:14:56.748Z,12.95
2019-04-04T15:19:59.017Z,12.51
2019-04-04T15:25:01.417Z,12.51
2019-04-04T15:30:05.207Z,12.92
2019-04-04T15:35:07.513Z,12.86
2019-04-04T15:40:09.645Z,12.89
2019-04-04T15:45:12.286Z,11.94
2019-04-04T15:50:14.430Z,12.22
2019-04-04T15:55:16.582Z,12.22
2019-04-04T16:00:18.696Z,11.99
2019-04-04T16:05:20.749Z,12.70
2019-04-04T16:10:22.783Z,12.70
2019-04-04T16:15:25.259Z,11.92
2019-04-04T16:20:27.258Z,13.10
2019-04-04T16:25:29.439Z,13.10
2019-04-04T16:30:31.735Z,12.94
2019-04-04T16:35:33.861Z,13.24
2019-04-04T16:40:37.725Z,13.42
2019-04-04T16:45:39.938Z,12.49
2019-04-04T16:50:45.383Z,12.35
2019-04-04T16:55:47.895Z,12.05
2019-04-04T17:00:51.664Z,11.66
2019-04-04T17:05:53.980Z,11.58
2019-04-04T17:10:56.319Z,11.63
2019-04-04T17:16:00.279Z,11.84
2019-04-04T17:21:06.685Z,11.53
2019-04-04T17:26:09.019Z,11.63
2019-04-04T17:31:12.644Z,11.35
2019-04-04T17:36:15.269Z,11.03
2019-04-04T17:41:17.538Z,11.14
2019-04-04T17:46:21.939Z,10.67
2019-04-04T17:51:25.062Z,10.65
2019-04-04T17:56:27.660Z,10.82
2019-04-04T18:01:29.666Z,10.62
2019-04-04T18:06:31.864Z,10.32
2019-04-04T18:11:34.261Z,10.25
2019-04-04T18:16:36.266Z,10.37
2019-04-04T18:21:38.322Z,10.17
2019-04-04T18:26:41.696Z,10.13
2019-04-04T18:31:46.450Z,9.92
2019-04-04T18:36:48.662Z,10.00
2019-04-04T18:41:50.727Z,9.74
2019-04-04T18:46:53.826Z,9.76
2019-04-04T18:51:55.918Z,9.76
2019-04-04T18:56:59.316Z,9.78
2019-04-04T19:02:06.518Z,9.56
2019-04-04T19:07:12.339Z,9.54
2019-04-04T19:12:15.805Z,9.61
2019-04-04T19:17:18.057Z,9.51
2019-04-04T19:22:20.396Z,9.57
2019-04-04T19:27:23.019Z,9.59
2019-04-04T19:32:27.203Z,9.59
2019-04-04T19:37:29.370Z,9.51
2019-04-04T19:42:31.372Z,9.40
2019-04-04T19:47:36.155Z,9.62
2019-04-04T19:52:38.199Z,9.44
2019-04-04T19:57:40.200Z,9.37
2019-04-04T20:02:44.018Z,9.55
2019-04-04T20:07:50.164Z,9.45
2019-04-04T20:12:54.632Z,9.53
2019-04-04T20:17:57.541Z,9.33
2019-04-04T20:23:00.591Z,9.39
2019-04-04T20:28:02.700Z,9.26
2019-04-04T20:33:04.699Z,9.38
2019-04-04T20:38:07.287Z,9.36
2019-04-04T20:43:09.901Z,9.33
2019-04-04T20:48:13.878Z,9.15
2019-04-04T20:53:16.309Z,9.44
2019-04-04T20:58:19.755Z,9.31
2019-04-04T21:03:24.293Z,9.23
2019-04-04T21:08:26.491Z,9.05
2019-04-04T21:13:30.083Z,8.94
2019-04-04T21:18:34.668Z,8.89
2019-04-04T21:23:36.687Z,8.87
2019-04-04T21:28:41.392Z,8.63
2019-04-04T21:33:46.008Z,8.65
2019-04-04T21:38:49.923Z,8.63
2019-04-04T21:43:51.932Z,8.37
2019-04-04T21:48:53.941Z,8.42
2019-04-04T21:53:57.784Z,8.42
2019-04-04T21:59:02.842Z,8.11
2019-04-04T22:04:10.294Z,8.07
2019-04-04T22:09:22.444Z,8.29
2019-04-04T22:14:24.741Z,8.19
2019-04-04T22:19:26.771Z,8.37
2019-04-04T22:24:29.077Z,8.22
2019-04-04T22:29:34.273Z,7.87
2019-04-04T22:34:38.187Z,7.94
2019-04-04T22:39:40.258Z,7.91
2019-04-04T22:44:42.937Z,7.98
2019-04-04T22:49:45.013Z,7.70
2019-04-04T22:54:47.149Z,7.72
2019-04-04T22:59:54.105Z,7.60
2019-04-04T23:04:56.210Z,7.56
2019-04-04T23:10:00.700Z,7.36
2019-04-04T23:15:04.878Z,7.25
2019-04-04T23:20:07.586Z,7.35
2019-04-04T23:25:10.019Z,7.46
2019-04-04T23:30:13.496Z,7.33
2019-04-04T23:35:16.710Z,7.25
2019-04-04T23:40:20.945Z,7.10
2019-04-04T23:45:27.693Z,7.31
2019-04-04T23:50:32.878Z,7.15
2019-04-04T23:55:35.192Z,7.12
